Aérodrome :
LOGIN :

S'inscrire | Disclaimer

   EN    FR    IT 

 










Légende :    VFR   VFR Marginal   IFR   IFR Intensif   IFR Très Intensif
Visi : 
Plafond : 
>= 8 km
>= 3000ft
5 à 8 km
1000 à 3000 ft
1500m à 5 km
500 à 1000 ft
800 à 1500m
200 à 500 ft
< 800m
< 200 ft
Symboles :   Orages  Brouillard  Fortes neiges  Fortes précipitations  Vent > 20 kt
SIGMETs :   Divers  Orages  Givrage  Turbulence  Onde Orograph.  Cendres Volcan.







- Altitude de l'aérodrome : 33 ft
- Code IATA : MHZ


EGUN - RAF Mildenhall

DERNIER METAR :
  • 221356Z AUTO 10011KT 9999 CLR 05/00 A3025 RMK AO2 SLP247 T00491005 $

METARs EXPIRÉS :
  • 221311Z AUTO 11013KT 9999 SCT036 05/M01 A3026 RMK AO2 SLP251 $
  • 221306Z AUTO 08012KT 9999 BKN036 05/00 A3026 RMK AO2 SLP251 $
  • 221231Z 09013KT 9999 FEW034 04/00 A3027 RMK SLP254 $
  • 221156Z AUTO 11013G18KT 9999 FEW032 05/01 A3027 RMK AO2 SLP254 T00490005 10049 20003 58004 $
  • 221146Z AUTO 10008KT 9999 SCT032 05/01 A3027 RMK AO2 SLP254 $

TAF TAF EGUN
Valide du 22 à 12h jusqu'au 23 à 18h UTC


221212Z 2212/2318 10009KT 9999 SCT030 QNH3026INS
BECMG 2221/2222 08006KT 8000 BR BKN025 QNH3021INS
TEMPO 2305/2308 5000 BR
BECMG 2309/2310 09012KT 9999 NSW BKN030 QNH3020INS
TEMPO 2313/2318 09015G20KT
BECMG 2317/2318 10009KT 8000 BR BKN025 QNH3015INS TX05/2213Z TNM02/2222Z
Pas de NOTAMs connus pour ce terrain.



MET'MAP, la Météo Aéronautique d'un coup d'oeil ! - Copyright ORBIFLY Décembre 2007 - Disclaimer

ORBIFLY MET'MAP TEAM :

Programmation & Développement : Alexandra Zaïnal
Conception & Développement : Baudouin d'Aumeries
Co-Programmation & Développement : Marc-Olivier Méhu
Soutien technique & logistique : Manuel Goepfert

Contact : metmap@orbifly.com




SOURCES & CREDITS :

   NOAA